createdAt,value
2022-08-26T00:02:33.302Z,79.20
2022-08-26T00:07:36.304Z,78.01
2022-08-26T00:12:41.208Z,77.17
2022-08-26T00:17:46.225Z,77.56
2022-08-26T00:22:51.101Z,77.55
2022-08-26T00:27:54.293Z,77.25
2022-08-26T00:33:00.470Z,77.46
2022-08-26T00:38:05.115Z,78.24
2022-08-26T00:43:09.357Z,77.67
2022-08-26T00:48:17.153Z,78.19
2022-08-26T00:53:26.034Z,78.26
2022-08-26T00:58:35.115Z,80.23
2022-08-26T01:03:40.260Z,78.66
2022-08-26T01:08:43.284Z,77.96
2022-08-26T01:13:47.496Z,78.19
2022-08-26T01:18:53.825Z,78.31
2022-08-26T01:24:00.604Z,78.67
2022-08-26T01:29:06.984Z,78.52
2022-08-26T01:34:17.270Z,78.18
2022-08-26T01:39:21.992Z,78.05
2022-08-26T01:44:28.872Z,78.56
2022-08-26T01:49:33.084Z,79.69
2022-08-26T01:54:39.475Z,78.85
2022-08-26T01:59:43.353Z,78.29
2022-08-26T02:04:51.100Z,79.22
2022-08-26T02:09:56.883Z,79.28
2022-08-26T02:15:05.767Z,78.00
2022-08-26T02:20:13.173Z,79.61
2022-08-26T02:25:25.065Z,79.59
2022-08-26T02:30:29.889Z,79.27
2022-08-26T02:35:34.636Z,79.66
2022-08-26T02:40:41.090Z,79.68
2022-08-26T02:45:45.904Z,79.09
2022-08-26T02:50:49.727Z,78.79
2022-08-26T02:55:54.159Z,79.68
2022-08-26T03:00:57.437Z,80.81
2022-08-26T03:06:01.225Z,80.48
2022-08-26T03:11:06.031Z,81.84
2022-08-26T03:16:09.537Z,80.68
2022-08-26T03:21:17.525Z,81.98
2022-08-26T03:26:23.027Z,82.12
2022-08-26T03:31:26.080Z,81.11
2022-08-26T03:36:29.072Z,80.56
2022-08-26T03:41:35.553Z,80.79
2022-08-26T03:46:39.619Z,80.48
2022-08-26T03:51:43.047Z,81.12
2022-08-26T03:56:49.144Z,80.45
2022-08-26T04:01:52.265Z,80.68
2022-08-26T04:06:59.336Z,79.67
2022-08-26T04:12:04.382Z,80.43
2022-08-26T04:17:07.817Z,80.00
2022-08-26T04:22:10.938Z,80.69
2022-08-26T04:27:15.323Z,80.94
2022-08-26T04:32:19.811Z,80.65
2022-08-26T04:37:22.813Z,79.96
2022-08-26T04:42:27.207Z,79.87
2022-08-26T04:47:32.476Z,81.06
2022-08-26T04:52:36.591Z,80.56
2022-08-26T04:57:41.245Z,79.77
2022-08-26T05:02:44.364Z,80.07
2022-08-26T05:07:47.358Z,80.68
2022-08-26T05:12:54.247Z,80.41
2022-08-26T05:17:59.093Z,81.39
2022-08-26T05:23:04.487Z,80.47
2022-08-26T05:28:09.369Z,80.57
2022-08-26T05:33:13.252Z,81.43
2022-08-26T05:38:22.082Z,80.20
2022-08-26T05:43:26.413Z,80.24
2022-08-26T05:48:29.528Z,80.01
2022-08-26T05:53:33.255Z,80.73
2022-08-26T05:58:39.704Z,81.16
2022-08-26T06:03:51.756Z,80.01
2022-08-26T06:08:55.187Z,79.15
2022-08-26T06:14:03.736Z,79.97
2022-08-26T06:19:10.554Z,79.20
2022-08-26T06:24:33.132Z,79.44
2022-08-26T06:29:38.229Z,79.29
2022-08-26T06:34:41.228Z,77.78
2022-08-26T06:39:44.645Z,77.81
2022-08-26T06:44:48.990Z,75.93
2022-08-26T06:49:52.135Z,75.25
2022-08-26T06:54:55.136Z,74.72
2022-08-26T06:59:59.585Z,71.08
2022-08-26T07:05:02.650Z,71.96
2022-08-26T07:10:06.246Z,73.07
2022-08-26T07:15:12.069Z,73.12
2022-08-26T07:20:15.348Z,71.17
2022-08-26T07:25:19.256Z,71.20
2022-08-26T07:30:25.635Z,71.01
2022-08-26T07:35:28.688Z,69.95
2022-08-26T07:40:34.018Z,68.51
2022-08-26T07:45:38.420Z,69.05
2022-08-26T07:50:50.227Z,66.92
2022-08-26T07:55:53.886Z,65.43
2022-08-26T08:00:58.441Z,65.90
2022-08-26T08:06:01.976Z,63.58
2022-08-26T08:11:05.127Z,62.40
2022-08-26T08:16:12.694Z,61.18
2022-08-26T08:21:22.182Z,63.23
2022-08-26T08:26:27.900Z,60.15
2022-08-26T08:36:59.521Z,63.10
2022-08-26T08:42:33.348Z,62.44
2022-08-26T08:47:43.002Z,62.36
2022-08-26T08:52:53.087Z,62.61
2022-08-26T08:58:03.771Z,60.92
2022-08-26T09:03:16.182Z,61.49
2022-08-26T09:08:24.330Z,62.34
2022-08-26T09:13:29.164Z,64.01
2022-08-26T09:18:50.241Z,64.62
2022-08-26T09:23:56.632Z,66.47
2022-08-26T09:29:01.867Z,66.44
2022-08-26T09:34:17.841Z,66.16
2022-08-26T09:39:34.685Z,67.25
2022-08-26T09:44:55.841Z,67.68
2022-08-26T09:50:09.586Z,68.55
2022-08-26T09:55:21.662Z,69.50
2022-08-26T10:00:29.070Z,69.58
2022-08-26T10:05:40.065Z,70.25
2022-08-26T10:10:45.360Z,68.78
2022-08-26T10:15:57.809Z,62.57
2022-08-26T10:21:09.869Z,58.23
2022-08-26T10:26:17.490Z,56.14
2022-08-26T10:31:28.370Z,56.07
2022-08-26T10:37:13.712Z,55.32
2022-08-26T10:42:25.240Z,54.74
2022-08-26T10:47:38.390Z,52.88
2022-08-26T10:52:57.070Z,46.90
2022-08-26T10:58:09.157Z,47.59
2022-08-26T11:03:35.108Z,43.92
2022-08-26T11:08:47.668Z,41.41
2022-08-26T11:14:04.425Z,40.99
2022-08-26T11:19:09.278Z,43.00
2022-08-26T11:24:45.158Z,43.67
2022-08-26T11:30:01.209Z,42.38
2022-08-26T11:35:07.477Z,43.14
2022-08-26T11:40:14.783Z,42.66
2022-08-26T11:45:24.217Z,45.59
2022-08-26T11:50:29.719Z,45.45
2022-08-26T11:55:37.223Z,47.21
2022-08-26T12:00:52.326Z,48.91
2022-08-26T12:05:56.449Z,47.93
2022-08-26T12:11:07.039Z,46.90
2022-08-26T12:16:10.559Z,45.90
2022-08-26T12:21:16.164Z,50.01
2022-08-26T12:26:28.166Z,49.67
2022-08-26T12:31:33.453Z,45.98
2022-08-26T12:36:40.243Z,45.47
2022-08-26T12:41:54.152Z,44.39
2022-08-26T12:47:03.561Z,46.54
2022-08-26T12:52:08.713Z,45.13
2022-08-26T12:57:14.163Z,47.08
2022-08-26T13:02:37.942Z,46.76
2022-08-26T13:07:41.051Z,45.29
2022-08-26T13:12:45.453Z,44.50
2022-08-26T13:17:48.460Z,44.28
2022-08-26T13:22:58.894Z,42.76
2022-08-26T13:28:04.013Z,42.77
2022-08-26T13:33:08.262Z,42.37
2022-08-26T13:38:20.561Z,43.47
2022-08-26T13:43:37.926Z,42.64
2022-08-26T13:48:41.143Z,42.73
2022-08-26T13:53:47.953Z,44.67
2022-08-26T13:58:52.342Z,46.17
2022-08-26T14:03:55.441Z,46.78
2022-08-26T14:08:58.695Z,49.30
2022-08-26T14:14:03.092Z,49.06
2022-08-26T14:19:07.764Z,49.53
2022-08-26T14:24:10.869Z,48.43
2022-08-26T14:29:16.769Z,48.84
2022-08-26T14:34:20.162Z,49.27
2022-08-26T14:39:23.198Z,48.98
2022-08-26T14:44:32.168Z,47.74
2022-08-26T14:49:35.232Z,46.08
2022-08-26T14:54:38.539Z,46.13
2022-08-26T14:59:49.883Z,49.48
2022-08-26T15:04:53.361Z,49.55
2022-08-26T15:09:56.454Z,49.08
2022-08-26T15:15:00.863Z,48.84
2022-08-26T15:20:05.031Z,50.04
2022-08-26T15:25:09.711Z,48.81
2022-08-26T15:30:16.271Z,47.43
2022-08-26T15:35:19.802Z,45.54
2022-08-26T15:40:23.884Z,45.66
2022-08-26T15:45:28.453Z,46.62
2022-08-26T15:50:32.281Z,46.33
2022-08-26T15:55:35.380Z,46.45
2022-08-26T16:00:40.431Z,46.88
2022-08-26T16:05:44.574Z,47.36
2022-08-26T16:10:50.640Z,46.55
2022-08-26T16:15:55.377Z,47.75
2022-08-26T16:21:13.274Z,49.16
2022-08-26T16:26:20.765Z,51.01
2022-08-26T16:31:25.535Z,51.51
2022-08-26T16:36:28.637Z,52.68
2022-08-26T16:41:32.587Z,53.76
2022-08-26T16:46:39.728Z,54.28
2022-08-26T16:51:43.245Z,54.85
2022-08-26T16:56:46.435Z,55.59
2022-08-26T17:01:51.234Z,55.72
2022-08-26T17:06:54.366Z,56.34
2022-08-26T17:11:57.556Z,55.17
2022-08-26T17:17:02.072Z,55.64
2022-08-26T17:22:06.072Z,56.52
2022-08-26T17:27:09.223Z,57.72
2022-08-26T17:32:13.603Z,58.94
2022-08-26T17:37:16.919Z,59.66
2022-08-26T17:42:20.090Z,59.50
2022-08-26T17:47:24.792Z,59.88
2022-08-26T17:52:27.961Z,60.39
2022-08-26T17:57:31.443Z,60.39
2022-08-26T18:02:45.017Z,60.55
2022-08-26T18:07:48.582Z,62.61
2022-08-26T18:12:51.596Z,63.59
2022-08-26T18:17:56.040Z,64.98
2022-08-26T18:22:59.170Z,65.89
2022-08-26T18:28:02.181Z,66.12
2022-08-26T18:33:06.666Z,65.35
2022-08-26T18:38:11.545Z,68.99
2022-08-26T18:43:14.772Z,70.34
2022-08-26T18:48:19.227Z,70.89
2022-08-26T18:53:22.294Z,70.54
2022-08-26T18:58:25.480Z,71.47
2022-08-26T19:03:29.941Z,71.43
2022-08-26T19:08:32.935Z,71.57
2022-08-26T19:13:37.501Z,71.37
2022-08-26T19:18:41.894Z,72.06
2022-08-26T19:23:44.866Z,72.16
2022-08-26T19:28:49.757Z,72.65
2022-08-26T19:33:54.281Z,73.99
2022-08-26T19:38:57.356Z,73.47
2022-08-26T19:44:01.734Z,72.75
2022-08-26T19:49:08.934Z,72.68
2022-08-26T19:54:11.936Z,72.21
2022-08-26T19:59:15.209Z,73.27
2022-08-26T20:04:19.588Z,73.16
2022-08-26T20:09:22.702Z,74.28
2022-08-26T20:14:26.096Z,74.52
2022-08-26T20:19:48.136Z,73.90
2022-08-26T20:24:51.765Z,73.17
2022-08-26T20:29:55.605Z,73.74
2022-08-26T20:35:01.611Z,74.40
2022-08-26T20:40:06.644Z,73.70
2022-08-26T20:45:10.779Z,77.91
2022-08-26T20:50:15.342Z,76.85
2022-08-26T20:55:18.652Z,76.09
2022-08-26T21:00:26.463Z,75.74
2022-08-26T21:05:31.539Z,78.20
2022-08-26T21:10:34.611Z,77.66
2022-08-26T21:15:39.558Z,75.72
2022-08-26T21:20:43.969Z,77.32
2022-08-26T21:25:47.667Z,76.11
2022-08-26T21:30:50.700Z,75.02
2022-08-26T21:35:55.562Z,75.20
2022-08-26T21:41:00.219Z,75.98
2022-08-26T21:46:11.398Z,79.25
2022-08-26T21:51:17.468Z,79.23
2022-08-26T21:56:21.940Z,78.43
2022-08-26T22:01:28.254Z,77.09
2022-08-26T22:06:34.680Z,77.33
2022-08-26T22:11:38.277Z,76.57
2022-08-26T22:16:41.393Z,76.00
2022-08-26T22:21:56.030Z,76.16
2022-08-26T22:26:59.110Z,76.67
2022-08-26T22:32:02.384Z,76.09
2022-08-26T22:37:06.918Z,76.77
2022-08-26T22:42:09.930Z,76.99
2022-08-26T22:47:13.019Z,76.65
2022-08-26T22:52:17.650Z,76.52
2022-08-26T22:57:21.570Z,77.03
2022-08-26T23:02:24.667Z,77.03
2022-08-26T23:07:29.106Z,76.28
2022-08-26T23:12:32.642Z,77.37
2022-08-26T23:17:35.788Z,77.61
2022-08-26T23:22:40.817Z,77.36
2022-08-26T23:27:44.591Z,77.53
2022-08-26T23:32:47.827Z,78.10
2022-08-26T23:37:53.617Z,77.84
2022-08-26T23:42:58.355Z,78.33
2022-08-26T23:48:01.755Z,79.57
2022-08-26T23:53:09.076Z,79.58
2022-08-26T23:58:12.176Z,78.48
